HAWK1 OJAM-OJAM
Flight info
| Callsign | HAWK1 |
|---|---|
| Flight time | N/A |
| Altitude | 3500 |
| Route | VFR SOUTH |
| Aircraft | H60/M-SBDFGRVY/C |
Departure
| Time | 2026-05-05 22:55 |
|---|---|
| Airport | Marka International (Amman Civil) Airport (OJAM) |
Arrival
| Time | N/A |
|---|---|
| Airport | Marka International (Amman Civil) Airport (OJAM) |
| Time | Latitude | Longitude | Altitude | Speed | Heading |
|---|---|---|---|---|---|
| 2026-05-05 22:50 | 31.96892 | 35.97708 | 2560 ft | 0 kts | 244° |
| 2026-05-05 22:50 | 31.96884 | 35.97705 | 2565 ft | 5 kts | 104° |
| 2026-05-05 22:51 | 31.96881 | 35.97751 | 2561 ft | 16 kts | 100° |
| 2026-05-05 22:51 | 31.96918 | 35.97942 | 2563 ft | 31 kts | 60° |
| 2026-05-05 22:51 | 31.97033 | 35.98219 | 2564 ft | 33 kts | 68° |
| 2026-05-05 22:51 | 31.97041 | 35.98362 | 2560 ft | 9 kts | 124° |
| 2026-05-05 22:52 | 31.97039 | 35.98367 | 2560 ft | 0 kts | 123° |
| 2026-05-05 22:54 | 31.97009 | 35.98405 | 2565 ft | 18 kts | 147° |
| 2026-05-05 22:54 | 31.96909 | 35.98238 | 2602 ft | 50 kts | 249° |
| 2026-05-05 22:54 | 31.96669 | 35.97690 | 2712 ft | 90 kts | 243° |
| 2026-05-05 22:54 | 31.96266 | 35.97084 | 2994 ft | 93 kts | 209° |
| 2026-05-05 22:55 | 31.95614 | 35.97027 | 3364 ft | 97 kts | 182° |
| 2026-05-05 22:55 | 31.94863 | 35.97037 | 3509 ft | 111 kts | 184° |
| 2026-05-05 22:55 | 31.94044 | 35.97036 | 3544 ft | 121 kts | 182° |
| 2026-05-05 22:55 | 31.93198 | 35.97083 | 3729 ft | 113 kts | 180° |
| 2026-05-05 22:56 | 31.92367 | 35.97136 | 3769 ft | 120 kts | 179° |
| 2026-05-05 22:56 | 31.91487 | 35.97236 | 3758 ft | 126 kts | 177° |
| 2026-05-05 22:56 | 31.90585 | 35.97362 | 3728 ft | 127 kts | 175° |
| 2026-05-05 22:56 | 31.89699 | 35.97464 | 3785 ft | 121 kts | 179° |
| 2026-05-05 22:57 | 31.88892 | 35.97527 | 3977 ft | 111 kts | 182° |
| 2026-05-05 22:57 | 31.88098 | 35.97545 | 4040 ft | 113 kts | 182° |
| 2026-05-05 22:57 | 31.87267 | 35.97685 | 4017 ft | 125 kts | 171° |
| 2026-05-05 22:57 | 31.86348 | 35.97939 | 3808 ft | 132 kts | 166° |
| 2026-05-05 22:58 | 31.85463 | 35.98218 | 3766 ft | 124 kts | 167° |
| 2026-05-05 22:58 | 31.84603 | 35.98456 | 3710 ft | 123 kts | 169° |
| 2026-05-05 22:58 | 31.83734 | 35.98648 | 3691 ft | 121 kts | 172° |
| 2026-05-05 22:58 | 31.82872 | 35.98821 | 3672 ft | 121 kts | 172° |
| 2026-05-05 22:59 | 31.82023 | 35.98996 | 3652 ft | 121 kts | 171° |
| 2026-05-05 22:59 | 31.81163 | 35.99176 | 3628 ft | 121 kts | 173° |
| 2026-05-05 22:59 | 31.80323 | 35.99321 | 3657 ft | 118 kts | 175° |
| 2026-05-05 22:59 | 31.79476 | 35.99410 | 3632 ft | 121 kts | 175° |
| 2026-05-05 23:00 | 31.77710 | 35.99663 | 3583 ft | 129 kts | 166° |
| 2026-05-05 23:00 | 31.76773 | 35.99974 | 3266 ft | 140 kts | 161° |
| 2026-05-05 23:00 | 31.75835 | 36.00325 | 3138 ft | 134 kts | 160° |
| 2026-05-05 23:01 | 31.74916 | 36.00668 | 2891 ft | 140 kts | 162° |
| 2026-05-05 23:01 | 31.73951 | 36.00823 | 2730 ft | 132 kts | 185° |
| 2026-05-05 23:01 | 31.73163 | 36.00312 | 2492 ft | 130 kts | 259° |
| 2026-05-05 23:01 | 31.73005 | 35.99205 | 2425 ft | 138 kts | 258° |
| 2026-05-05 23:02 | 31.72845 | 35.98037 | 2461 ft | 143 kts | 258° |
| 2026-05-05 23:02 | 31.72695 | 35.97019 | 3011 ft | 106 kts | 242° |
| 2026-05-05 23:02 | 31.72100 | 35.96630 | 3490 ft | 108 kts | 200° |
| 2026-05-05 23:02 | 31.71229 | 35.96675 | 3558 ft | 140 kts | 176° |
| 2026-05-05 23:03 | 31.70200 | 35.96832 | 3549 ft | 142 kts | 172° |
| 2026-05-05 23:03 | 31.69251 | 35.97002 | 3592 ft | 132 kts | 173° |
| 2026-05-05 23:03 | 31.68365 | 35.97143 | 3744 ft | 117 kts | 176° |
| 2026-05-05 23:03 | 31.67650 | 35.97210 | 4016 ft | 103 kts | 178° |
| 2026-05-05 23:04 | 31.66877 | 35.97338 | 3923 ft | 108 kts | 171° |
| 2026-05-05 23:04 | 31.66092 | 35.97473 | 3892 ft | 117 kts | 171° |
| 2026-05-05 23:04 | 31.65250 | 35.97678 | 3744 ft | 128 kts | 167° |
| 2026-05-05 23:04 | 31.64378 | 35.97892 | 3769 ft | 114 kts | 173° |
| 2026-05-05 23:05 | 31.63676 | 35.97613 | 3820 ft | 99 kts | 209° |
| 2026-05-05 23:05 | 31.63175 | 35.97128 | 3997 ft | 83 kts | 215° |
| 2026-05-05 23:05 | 31.62673 | 35.96659 | 3995 ft | 103 kts | 211° |
| 2026-05-05 23:05 | 31.62042 | 35.96102 | 3905 ft | 121 kts | 213° |
| 2026-05-05 23:06 | 31.61311 | 35.95442 | 3680 ft | 134 kts | 211° |
| 2026-05-05 23:06 | 31.60554 | 35.94775 | 3633 ft | 131 kts | 212° |
| 2026-05-05 23:06 | 31.59831 | 35.94127 | 3568 ft | 132 kts | 212° |
| 2026-05-05 23:06 | 31.59032 | 35.93478 | 3470 ft | 142 kts | 211° |
| 2026-05-05 23:07 | 31.58172 | 35.92752 | 3463 ft | 152 kts | 213° |
| 2026-05-05 23:07 | 31.57276 | 35.92001 | 3431 ft | 156 kts | 209° |
| 2026-05-05 23:07 | 31.56350 | 35.91359 | 3565 ft | 147 kts | 203° |
| 2026-05-05 23:07 | 31.55512 | 35.90720 | 3891 ft | 132 kts | 217° |
| 2026-05-05 23:08 | 31.54797 | 35.90021 | 3679 ft | 152 kts | 212° |
| 2026-05-05 23:08 | 31.54203 | 35.89371 | 4019 ft | 122 kts | 234° |
| 2026-05-05 23:08 | 31.54198 | 35.89362 | 4020 ft | 122 kts | 234° |
| 2026-05-05 23:08 | 31.53847 | 35.88473 | 4443 ft | 113 kts | 245° |
| 2026-05-05 23:09 | 31.53505 | 35.87527 | 4223 ft | 126 kts | 235° |
| 2026-05-05 23:09 | 31.53085 | 35.86567 | 4054 ft | 131 kts | 241° |
| 2026-05-05 23:09 | 31.52690 | 35.85579 | 3913 ft | 130 kts | 241° |
| 2026-05-05 23:09 | 31.52271 | 35.84607 | 3812 ft | 130 kts | 239° |
| 2026-05-05 23:10 | 31.52059 | 35.84153 | 3721 ft | 132 kts | 238° |
| 2026-05-05 23:10 | 31.51884 | 35.83775 | 3604 ft | 137 kts | 238° |
| 2026-05-05 23:11 | 31.51400 | 35.82770 | 3383 ft | 136 kts | 235° |
| 2026-05-05 23:11 | 31.51159 | 35.81673 | 3216 ft | 134 kts | 261° |
| 2026-05-05 23:11 | 31.51315 | 35.80579 | 3094 ft | 136 kts | 275° |
| 2026-05-05 23:11 | 31.51499 | 35.79436 | 2775 ft | 145 kts | 271° |
| 2026-05-05 23:12 | 31.51655 | 35.78249 | 2600 ft | 139 kts | 271° |
| 2026-05-05 23:12 | 31.51825 | 35.77128 | 2586 ft | 130 kts | 273° |
| 2026-05-05 23:12 | 31.51999 | 35.76118 | 2708 ft | 116 kts | 274° |
| 2026-05-05 23:12 | 31.52163 | 35.75198 | 2894 ft | 112 kts | 270° |
| 2026-05-05 23:13 | 31.52216 | 35.74808 | 2924 ft | 114 kts | 267° |
| 2026-05-05 23:14 | 31.52220 | 35.74765 | 2929 ft | 114 kts | 267° |
| 2026-05-05 23:14 | 31.52284 | 35.73857 | 2826 ft | 132 kts | 266° |
| 2026-05-05 23:14 | 31.52305 | 35.72632 | 2336 ft | 149 kts | 258° |
| 2026-05-05 23:14 | 31.52111 | 35.71453 | 2177 ft | 145 kts | 255° |
| 2026-05-05 23:15 | 31.51870 | 35.70259 | 1747 ft | 158 kts | 251° |
| 2026-05-05 23:15 | 31.51480 | 35.69129 | 1657 ft | 143 kts | 240° |
| 2026-05-05 23:15 | 31.51358 | 35.68079 | 2065 ft | 103 kts | 268° |
| 2026-05-05 23:15 | 31.51411 | 35.67275 | 2390 ft | 93 kts | 275° |
| 2026-05-05 23:16 | 31.51512 | 35.66468 | 2536 ft | 104 kts | 273° |
| 2026-05-05 23:16 | 31.51557 | 35.65892 | 2689 ft | 97 kts | 269° |
| 2026-05-05 23:17 | 31.51590 | 35.65154 | 2730 ft | 124 kts | 272° |
| 2026-05-05 23:17 | 31.51568 | 35.64099 | 3025 ft | 123 kts | 264° |
| 2026-05-05 23:17 | 31.51585 | 35.63015 | 3210 ft | 135 kts | 272° |
| 2026-05-05 23:18 | 31.51895 | 35.61917 | 3323 ft | 146 kts | 302° |
| 2026-05-05 23:18 | 31.52877 | 35.61694 | 3416 ft | 153 kts | 1° |
| 2026-05-05 23:18 | 31.53974 | 35.61363 | 3196 ft | 169 kts | 331° |
| 2026-05-05 23:18 | 31.55119 | 35.60772 | 2098 ft | 206 kts | 330° |
| 2026-05-05 23:19 | 31.56269 | 35.60181 | 1686 ft | 170 kts | 332° |
| 2026-05-05 23:19 | 31.57396 | 35.59560 | 1069 ft | 170 kts | 322° |
| 2026-05-05 23:19 | 31.58382 | 35.58738 | 635 ft | 168 kts | 314° |
| 2026-05-05 23:19 | 31.59286 | 35.57791 | 188 ft | 168 kts | 308° |
| 2026-05-05 23:20 | 31.60101 | 35.56826 | -4 ft | 157 kts | 310° |
| 2026-05-05 23:20 | 31.61178 | 35.56588 | -194 ft | 159 kts | 6° |
| 2026-05-05 23:20 | 31.62230 | 35.57021 | -762 ft | 157 kts | 20° |
| 2026-05-05 23:20 | 31.63172 | 35.57391 | -825 ft | 113 kts | 3° |
| 2026-05-05 23:21 | 31.63689 | 35.57802 | -441 ft | 72 kts | 63° |
| 2026-05-05 23:21 | 31.63956 | 35.58335 | 1 ft | 84 kts | 65° |
| 2026-05-05 23:21 | 31.64263 | 35.58902 | 544 ft | 89 kts | 62° |
| 2026-05-05 23:21 | 31.64639 | 35.59543 | 1005 ft | 105 kts | 55° |
| 2026-05-05 23:22 | 31.65183 | 35.60347 | 1203 ft | 139 kts | 51° |
| 2026-05-05 23:22 | 31.65882 | 35.61372 | 1316 ft | 157 kts | 47° |
| 2026-05-05 23:22 | 31.66410 | 35.62178 | 2416 ft | 109 kts | 60° |
| 2026-05-05 23:22 | 31.66782 | 35.62950 | 3126 ft | 110 kts | 62° |
| 2026-05-05 23:23 | 31.67126 | 35.63823 | 3605 ft | 128 kts | 64° |
| 2026-05-05 23:23 | 31.67468 | 35.64901 | 3896 ft | 148 kts | 68° |
| 2026-05-05 23:23 | 31.67741 | 35.65806 | 4242 ft | 35 kts | 245° |
| 2026-05-05 23:23 | 31.68258 | 35.66312 | 3007 ft | 152 kts | 28° |
| 2026-05-05 23:24 | 31.69066 | 35.67285 | 2652 ft | 169 kts | 60° |
| 2026-05-05 23:24 | 31.69408 | 35.68471 | 3509 ft | 127 kts | 79° |
| 2026-05-05 23:24 | 31.69461 | 35.68843 | 2819 ft | 88 kts | 244° |
| 2026-05-05 23:24 | 31.69391 | 35.68649 | 2160 ft | 83 kts | 176° |